Illiopolis, Illinois
Current Conditions -  °F | °C
As of 6:54 PM on Saturday 25 Oct 2014 (Local Time) from KDEC Reporting Station
Clear Clear  
Wind Chill: 68°   Ceiling: Unl
Heat Index: 68°   Visibility: 10mi
Dew Point: 47°   Wind: 8mph
Humidity: 47%   Direction: 300°WNW
Pressure: 30"   Gusts: NA
Location:  39.85°N, 89.24°W
Report Text: KDEC 252354Z 30007KT 10SM CLR 20/08 A3000 RMK AO2 SLP156 T02000083 10256 20200 53003
Loading
Personal Weather Stations






























Interactive Weather Map
Tropical Storm Tracking
New forecast layout! Learn more

10-Day Weather Forecast

Advertisements
Track Severe Weather on mobile